SBOSBO LCA / LCLK
Speedbird OnlineSpeedbird Online LCA / LCLK

Larnaca International Airport
01:48 19.1°C

Location Larnaca, Cyprus
Latitude: 34.875099182128906
Longitude: 33.624900817871094
Local Time 01:48 on 26 May 2024
UTC +3 hours (Asia/Nicosia)
Currency £1 equals EUR 1.17
METAR LCLK 252230Z 21003KT CAVOK 18/16 Q1009 NOSIG
TAF TAF LCLK 251730Z 2518/2618 21012KT 9999 FEW030 BECMG 2518/2520 27008KT BECMG 2606/2609 20016KT BECMG 2616/2618 34008KT
Weather As Of 26 May 2024 01:48
Description Clear sky
Wind 6 km/h from South-West (210°)
Cloud Cover 0%
Precipitation Rain: none, Snow: none
Sunrise 05:35
Sunset 19:49
NOTAM 27 active NOTAM
Rotations During the last 90 days there were
282 flights from LHR
2 flights from LCA
262 flights to LHR
26 flights to TLV
2 flights to LCA
1 flights to BEY
1 flights to LGW
Lounges Aspire Aphrodite Lounge , Main
Web Airport Website | Wikipedia
Codes IATA: LCA
ICAO: LCLK
Altitude 2 Meter / 8 Feet
Distance 3,241 KM / 2,014 Miles
from London.
Runways
RunwayLength (m)Surface
042994Asphalt
222994Asphalt
Radio
TypeDescriptionFrequency
APPAPP121.2
ATISATIS126.55
TWRTWR119.4
Live ATC



Support Speedbird Online

© 2017-2024 Speedbird Online